• Join FlightAware (Why Join?)
  • Login
  • US Flag 
01:01PM EDT


 

Airport Tracker/Info


-or-


 

Live Flight TrackerFlight Track Log ✈ QFA1073 ✈ 07-Oct-2013 ✈ YBRM / BME - YPPH / PER

Flight Track Log - Related Links

Times and Time Zones

All times are in EDT time to prevent confusion due to time zone crossing. See the QFA1073 flight status page for this flight to view local times or setup timezone preferences in your user account.

Time Position Orientation Groundspeed Altitude Reporting Facility
EDT Latitude Longitude Course Direction KTS MPH feet Rate Location/Type
01:23AM -17.9496 122.2277 199° South 16,300  Level Aus ATC (Calculated)
01:24AM -18.0106 122.2346 199° South 16,300 600 Level Aus ATC (Calculated)
01:26AM -18.1890 122.0902 218° Southwest  Level FlightAware Approximate
01:27AM -18.2804 122.0160 218° Southwest  Level FlightAware Approximate
01:27AM -18.2874 122.2660 201° Southwest 16,300  Level Aus ATC (Calculated)
01:28AM -18.2874 122.2660 201° Southwest 16,300 660 Level Aus ATC (Calculated)
01:29AM -18.3152 122.1490 256° West  Level FlightAware Approximate
01:30AM -18.4221 122.1056 201° Southwest  Level Estimated
01:30AM -18.5386 122.2453 203° Southwest 36,000  Level Aus ATC (Calculated)
01:32AM -18.7251 122.1154 213° Southwest  Level FlightAware Approximate
01:33AM -18.8207 122.0487 213° Southwest  Level FlightAware Approximate
01:33AM -18.9432 122.0937 204° Southwest 36,000  Level Aus ATC (Calculated)
01:34AM -18.9162 121.9819 213° Southwest  Level FlightAware Approximate
01:35AM -19.0817 121.9761 219° Southwest  Level FlightAware Approximate
01:35AM -19.1960 121.9985 204° Southwest 36,000  Level Aus ATC (Calculated)
01:37AM -19.3007 121.8892 225° Southwest  Level FlightAware Approximate
01:37AM -19.3982 121.9222 204° Southwest 36,000  Level Aus ATC (Calculated)
01:38AM -19.3823 121.8039 225° Southwest  Level FlightAware Approximate
01:39AM -19.5070 121.7733 232° Southwest  Level FlightAware Approximate
01:40AM -19.5771 121.6772 232° Southwest  Level FlightAware Approximate
01:41AM -19.6472 121.5810 232° Southwest  Level FlightAware Approximate
01:41AM -19.8530 121.7497 206° Southwest 36,000  Level Aus ATC (Calculated)
01:43AM -20.0476 121.6657 201° Southwest  Level Estimated
01:43AM -20.1078 121.6442 207° Southwest 36,000  Level Aus ATC (Calculated)
01:44AM -20.2133 121.5870 207° Southwest 36,000  Level Aus ATC (Calculated)
01:45AM -20.2746 121.5538 207° Southwest  Level FlightAware Approximate
01:45AM -20.3188 121.5298 207° Southwest 36,000  Level Aus ATC (Calculated)
01:46AM -20.3681 121.5029 207° Southwest  Level FlightAware Approximate
01:47AM -20.4804 121.4418 207° Southwest  Level FlightAware Approximate
01:48AM -20.5824 121.3862 207° Southwest  Level FlightAware Approximate
01:49AM -20.6885 121.3283 207° Southwest  Level FlightAware Approximate
01:49AM -20.7933 121.2710 207° Southwest 36,000  Level Aus ATC (Calculated)
01:50AM -20.7945 121.2704 207° Southwest  Level FlightAware Approximate
01:51AM -20.9581 121.1807 207° Southwest  Level FlightAware Approximate
01:52AM -21.0601 121.1247 207° Southwest  Level FlightAware Approximate
01:53AM -21.1620 121.0687 207° Southwest  Level FlightAware Approximate
01:54AM -21.2640 121.0126 207° Southwest  Level FlightAware Approximate
01:54AM -21.3199 120.9817 28° Northeast 36,000  Level Aus ATC (Calculated)
01:55AM -21.3070 120.9890 207° Southwest 451 519 36,000 -120 Level FlightAware
01:56AM -21.4864 120.8898 207° Southwest  Level FlightAware Approximate
01:56AM -21.3604 120.9566 207° Southwest 448 516 35,900  Level Aus ATC (RADAR)
01:56AM -21.3884 120.9415 207° Southwest 448 516 35,900 300 Level Aus ATC (RADAR)
01:56AM -21.3870 120.9450 207° Southwest 450 518 36,000 120 Climbing FlightAware
01:56AM -21.4430 120.9140 207° Southwest 450 518 36,000  Level FlightAware
01:57AM -21.5270 120.8670 207° Southwest 448 516 36,000  Level FlightAware
01:58AM -21.5940 120.8300 207° Southwest 448 516 36,000  Level FlightAware
01:58AM -21.6740 120.7860 207° Southwest 447 514 36,000  Level FlightAware
01:59AM -21.7490 120.7440 207° Southwest 445 512 36,000  Level FlightAware
02:00AM -21.8080 120.7110 207° Southwest 445 512 36,000  Level FlightAware
02:00AM -21.9030 120.6590 207° Southwest 445 512 36,000  Level FlightAware
02:01AM -21.9590 120.6280 207° Southwest 445 512 36,000  Level FlightAware
02:02AM -22.0150 120.5980 206° Southwest 445 512 36,000  Level FlightAware
02:02AM -22.0710 120.5670 207° Southwest 445 512 36,000  Level FlightAware
02:03AM -22.1270 120.5360 207° Southwest 445 512 36,000  Level FlightAware
02:04AM -22.2440 120.4690 208° Southwest 447 514 36,000  Level FlightAware
02:04AM -22.3000 120.4380 207° Southwest 447 514 36,000  Level FlightAware
02:05AM -22.3560 120.4070 207° Southwest 447 514 36,000  Level FlightAware
02:05AM -22.4370 120.3600 207° Southwest 445 512 36,000  Level FlightAware
02:05AM -22.4353 120.3597 207° Southwest 444 511 36,000  Level Aus ATC (RADAR)
02:06AM -22.4960 120.3270 207° Southwest 445 512 36,000  Level FlightAware
02:06AM -22.5530 120.2960 207° Southwest 445 512 36,000  Level FlightAware
02:07AM -22.6090 120.2650 207° Southwest 445 512 36,000  Level FlightAware
02:08AM -22.6660 120.2340 207° Southwest 445 512 36,000  Level FlightAware
02:08AM -22.7240 120.2020 207° Southwest 445 512 36,000  Level FlightAware
02:09AM -22.7800 120.1710 207° Southwest 445 512 36,000  Level FlightAware
02:10AM -22.8360 120.1400 207° Southwest 445 512 36,000  Level FlightAware
02:10AM -22.8930 120.1090 207° Southwest 445 512 36,000  Level FlightAware
02:11AM -22.9610 120.0710 207° Southwest 445 512 36,000  Level FlightAware
02:11AM -23.0170 120.0400 207° Southwest 445 512 36,000  Level FlightAware
02:12AM -23.0750 120.0080 207° Southwest 445 512 36,000  Level FlightAware
02:13AM -23.1310 119.9770 207° Southwest 445 512 36,000  Level FlightAware
02:13AM -23.1870 119.9450 208° Southwest 445 512 36,000  Level FlightAware
02:14AM -23.2430 119.9140 207° Southwest 445 512 36,000  Level FlightAware
02:14AM -23.3000 119.8830 207° Southwest 445 512 36,000  Level FlightAware
02:15AM -23.3560 119.8520 207° Southwest 445 512 36,000 -60 Level FlightAware
02:16AM -23.6713 119.6992 207° Southwest 463 533 35,900 -60 Descending Aus ATC (RADAR)
02:18AM -23.8123 119.6400 201° Southwest 437 503 35,900  Level Aus ATC (RADAR)
02:18AM -23.8512 119.6237 201° Southwest 443 510 35,900  Level Aus ATC (RADAR)
02:19AM -24.0123 119.5564 201° Southwest 436 502 35,900  Level Aus ATC (RADAR)
02:22AM -24.2942 119.4374 201° Southwest 434 499 35,900  Level Aus ATC (RADAR)
02:23AM -24.4427 119.3746 201° Southwest 431 496 35,900  Level Aus ATC (RADAR)
02:23AM -24.4698 119.3635 200° South 426 490 35,900  Level Aus ATC (RADAR)
02:25AM -24.6356 119.2936 201° Southwest 421 484 35,900  Level Aus ATC (RADAR)
02:27AM -24.9177 119.1733 201° Southwest 438 504 35,900  Level Aus ATC (RADAR)
02:29AM -25.0680 119.1096 201° Southwest 436 502 35,900  Level Aus ATC (RADAR)
02:29AM -25.0960 119.0975 201° Southwest 434 499 35,900  Level Aus ATC (RADAR)
02:31AM -25.2636 119.0251 201° Southwest 433 498 36,000  Climbing Aus ATC (RADAR)
02:33AM -25.5916 118.8844 201° Southwest 436 502 36,000  Level Aus ATC (RADAR)
02:35AM -25.7813 118.8014 202° Southwest 439 505 36,000 -60 Level Aus ATC (RADAR)
02:37AM -25.9684 118.7207 201° Southwest 436 502 35,900  Descending Aus ATC (RADAR)
02:38AM -26.1363 118.6474 201° Southwest 432 497 36,000  Climbing Aus ATC (RADAR)
02:40AM -26.2949 118.5802 201° Southwest 429 494 36,000  Level Aus ATC (RADAR)
02:42AM -26.5092 118.4911 200° South 428 493 36,000  Level Aus ATC (RADAR)
02:46AM -26.9490 118.2945 202° Southwest 38,000  Climbing Aus ATC (Calculated)
02:47AM -27.1303 118.2129 203° Southwest 38,000 -240 Level Aus ATC (Calculated)
02:48AM -27.1605 118.2006 201° Southwest  Level Estimated
02:49AM -27.2642 118.1525 202° Southwest  Level FlightAware Approximate
02:50AM -27.3659 118.1065 202° Southwest  Level FlightAware Approximate
02:51AM -27.4676 118.0605 202° Southwest  Level FlightAware Approximate
02:51AM -27.5720 118.0130 203° Southwest 38,000  Level Aus ATC (Calculated)
02:52AM -27.7866 117.9153 204° Southwest 38,000 -420 Level Aus ATC (Calculated)
02:54AM -27.9329 117.8484 202° Southwest  Level FlightAware Approximate
02:55AM -27.8189 117.9005 22° Northeast  Level FlightAware Approximate
02:56AM -27.9329 117.8484 202° Southwest  Level FlightAware Approximate
02:56AM -28.0653 117.7728 202° Southwest 421 484 36,000  Level Aus ATC (RADAR)
02:59AM -28.4143 117.6138 202° Southwest 416 479 36,000  Level Aus ATC (RADAR)
03:00AM -28.5591 117.5518 201° Southwest 417 480 36,000  Level Aus ATC (RADAR)
03:00AM -28.5860 117.5392 202° Southwest 419 482 36,000  Level Aus ATC (RADAR)
03:01AM -28.6232 117.5344 202° Southwest 419 482 36,000  Level FlightAware ADS-B (YPPH / PER)
03:01AM -28.6773 117.5094 202° Southwest 419 482 36,000  Level FlightAware ADS-B (YPPH / PER)
03:02AM -28.7310 117.4848 202° Southwest 418 481 36,000  Level FlightAware ADS-B (YPPH / PER)
03:02AM -28.7854 117.4599 202° Southwest 418 481 36,000  Level FlightAware ADS-B (YPPH / PER)
03:03AM -28.8388 117.4352 202° Southwest 418 481 36,000  Level FlightAware ADS-B (YPPH / PER)
03:03AM -28.8917 117.4108 202° Southwest 418 481 36,000  Level FlightAware ADS-B (YPPH / PER)
03:04AM -28.9481 117.3849 202° Southwest 417 480 36,000  Level FlightAware ADS-B (YPPH / PER)
03:04AM -29.0015 117.3603 202° Southwest 415 478 36,000  Level FlightAware ADS-B (YPPH / PER)
03:05AM -29.0555 117.3354 202° Southwest 415 478 36,000  Level FlightAware ADS-B (YPPH / PER)
03:05AM -29.1085 117.3110 202° Southwest 415 478 36,000  Level FlightAware ADS-B (YPPH / PER)
03:06AM -29.1615 117.2863 202° Southwest 415 478 36,000  Level FlightAware ADS-B (YPPH / PER)
03:06AM -29.2157 117.2612 202° Southwest 415 478 36,000  Level FlightAware ADS-B (YPPH / PER)
03:07AM -29.2868 117.2283 202° Southwest 415 478 36,000  Level FlightAware ADS-B (YPPH / PER)
03:08AM -29.3575 117.1955 202° Southwest 414 476 36,000  Level FlightAware ADS-B (YPPH / PER)
03:08AM -29.4144 117.1689 202° Southwest 414 476 36,000  Level FlightAware ADS-B (YPPH / PER)
03:09AM -29.4673 117.1443 202° Southwest 414 476 36,000  Level FlightAware ADS-B (YPPH / PER)
03:09AM -29.5206 117.1193 202° Southwest 414 476 36,000  Level FlightAware ADS-B (YPPH / PER)
03:10AM -29.5742 117.0942 202° Southwest 416 479 36,000  Level FlightAware ADS-B (YPPH / PER)
03:10AM -29.6274 117.0694 202° Southwest 417 480 36,000  Level FlightAware ADS-B (YPPH / PER)
03:11AM -29.6810 117.0443 202° Southwest 417 480 36,000  Level FlightAware ADS-B (YPPH / PER)
03:11AM -29.7351 117.0192 202° Southwest 418 481 36,000  Level FlightAware ADS-B (YPPH / PER)
03:12AM -29.7884 116.9943 202° Southwest 416 479 36,000  Level FlightAware ADS-B (YPPH / PER)
03:12AM -29.8424 116.9690 202° Southwest 414 476 36,000  Level FlightAware ADS-B (YPPH / PER)
03:13AM -29.8948 116.9442 202° Southwest 406 467 36,000  Level FlightAware ADS-B (YPPH / PER)
03:13AM -29.9479 116.9190 202° Southwest 405 466 36,000  Level FlightAware ADS-B (YPPH / PER)
03:14AM -30.0013 116.8938 202° Southwest 403 464 36,000  Level FlightAware ADS-B (YPPH / PER)
03:14AM -30.0553 116.8635 202° Southwest 411 473 36,000  Level Aus ATC (RADAR)
03:14AM -30.0753 116.8589 202° Southwest 403 464 36,000  Level FlightAware ADS-B (YPPH / PER)
03:15AM -30.1449 116.8259 202° Southwest 402 463 36,000  Level FlightAware ADS-B (YPPH / PER)
03:16AM -30.1967 116.8013 202° Southwest 403 464 36,000  Level FlightAware ADS-B (YPPH / PER)
03:16AM -30.2501 116.7760 202° Southwest 403 464 36,000  Level FlightAware ADS-B (YPPH / PER)
03:17AM -30.3208 116.7427 202° Southwest 403 464 36,000  Level FlightAware ADS-B (YPPH / PER)
03:17AM -30.3725 116.7179 202° Southwest 402 463 36,000  Level FlightAware ADS-B (YPPH / PER)
03:18AM -30.4291 116.6908 202° Southwest 401 461 36,000 -900 Level FlightAware ADS-B (YPPH / PER)
03:18AM -30.4812 116.6662 202° Southwest 402 463 35,100 -2,340 Descending FlightAware ADS-B (YPPH / PER)
03:19AM -30.5325 116.6417 202° Southwest 402 463 33,700 -3,120 Descending FlightAware ADS-B (YPPH / PER)
03:19AM -30.5862 116.6189 200° South 410 472 32,000 -3,600 Descending FlightAware ADS-B (YPPH / PER)
03:20AM -30.6427 116.5967 199° South 424 488 30,100 -3,600 Descending FlightAware ADS-B (YPPH / PER)
03:20AM -30.7001 116.5743 199° South 442 509 28,400 -3,000 Descending FlightAware ADS-B (YPPH / PER)
03:21AM -30.7621 116.5504 198° South 444 511 27,000 -2,520 Descending FlightAware ADS-B (YPPH / PER)
03:21AM -30.8196 116.5280 198° South 444 511 25,800 -2,220 Descending FlightAware ADS-B (YPPH / PER)
03:22AM -30.8801 116.5042 199° South 442 509 24,800 -2,220 Descending FlightAware ADS-B (YPPH / PER)
03:22AM -30.9394 116.4812 198° South 456 525 23,600 -2,640 Descending FlightAware ADS-B (YPPH / PER)
03:23AM -31.0005 116.4574 198° South 455 524 22,200 -2,820 Descending FlightAware ADS-B (YPPH / PER)
03:23AM -31.0611 116.4339 198° South 460 529 20,800 -2,700 Descending FlightAware ADS-B (YPPH / PER)
03:24AM -31.1193 116.4112 198° South 442 509 19,500 -2,700 Descending FlightAware ADS-B (YPPH / PER)
03:24AM -31.1806 116.3871 199° South 440 506 18,100 -2,760 Descending FlightAware ADS-B (YPPH / PER)
03:25AM -31.2386 116.3642 199° South 426 490 16,700 -1,800 Descending FlightAware ADS-B (YPPH / PER)
03:25AM -31.2927 116.3428 199° South 404 465 16,300 -900 Descending FlightAware ADS-B (YPPH / PER)
03:26AM -31.3454 116.3221 199° South 374 430 15,800 -840 Descending FlightAware ADS-B (YPPH / PER)
03:26AM -31.3938 116.3030 199° South 355 409 15,500 -720 Descending FlightAware ADS-B (YPPH / PER)
03:27AM -31.4369 116.2810 203° Southwest 319 367 15,100 -1,020 Descending FlightAware ADS-B (YPPH / PER)
03:27AM -31.4710 116.2590 209° Southwest 314 361 14,500 -1,500 Descending FlightAware
03:27AM -31.4905 116.2466 208° Southwest 313 360 14,100 -1,680 Descending FlightAware ADS-B (YPPH / PER)
03:28AM -31.5405 116.2145 209° Southwest 314 361 13,200 -1,500 Descending FlightAware ADS-B (YPPH / PER)
03:29AM -31.5797 116.1894 209° Southwest 311 358 12,400 -1,500 Descending FlightAware ADS-B (YPPH / PER)
03:29AM -31.6159 116.1661 209° Southwest 298 343 11,700 -1,440 Descending FlightAware ADS-B (YPPH / PER)
03:30AM -31.6540 116.1417 209° Southwest 299 344 11,000 -1,380 Descending FlightAware ADS-B (YPPH / PER)
03:30AM -31.7022 116.1108 209° Southwest 283 326 10,100 -1,500 Descending FlightAware ADS-B (YPPH / PER)
03:31AM -31.7230 116.0974 209° Southwest 280 322 9,600 -1,500 Descending FlightAware ADS-B (YPPH / PER)
03:31AM -31.7456 116.0838 207° Southwest 280 322 9,200 -1,380 Descending FlightAware ADS-B (YPPH / PER)
03:31AM -31.7776 116.0728 196° South 283 326 8,600 -1,440 Descending FlightAware ADS-B (YPPH / PER)
03:32AM -31.8147 116.0653 190° South 289 333 8,000 -1,260 Descending FlightAware ADS-B (YPPH / PER)
03:32AM -31.8297 116.0655 180° South 295 339 7,800 -1,440 Descending FlightAware ADS-B (YPPH / PER)
03:32AM -31.8487 116.0708 167° South 297 342 7,400 -1,380 Descending FlightAware ADS-B (YPPH / PER)
03:33AM -31.8850 116.0890 157° South 302 348 6,800 -1,380 Descending FlightAware
03:33AM -31.8897 116.0917 154° Southeast 302 348 6,700 -840 Descending FlightAware ADS-B (YPPH / PER)
03:33AM -31.9328 116.1138 157° South 284 327 6,300 -660 Descending FlightAware ADS-B (YPPH / PER)
03:34AM -31.9575 116.1262 157° South 277 319 6,100 -1,080 Descending FlightAware ADS-B (YPPH / PER)
03:34AM -31.9809 116.1278 177° South 261 300 5,600 -1,140 Descending FlightAware ADS-B (YPPH / PER)
03:34AM -32.0005 116.1193 200° South 245 282 5,400 -960 Descending FlightAware ADS-B (YPPH / PER)
03:35AM -32.0339 116.1039 201° Southwest 230 265 4,800 -1,320 Descending FlightAware ADS-B (YPPH / PER)
03:35AM -32.0589 116.0913 203° Southwest 214 246 4,200 -1,260 Descending FlightAware ADS-B (YPPH / PER)
03:35AM -32.0644 116.0841 228° Southwest 194 223 4,100 -780 Descending FlightAware ADS-B (YPPH / PER)
03:35AM -32.0667 116.0784 245° Southwest 179 206 4,000 -900 Descending FlightAware ADS-B (YPPH / PER)
03:36AM -32.0676 116.0651 265° West 169 194 3,800 -1,020 Descending FlightAware ADS-B (YPPH / PER)
03:36AM -32.0646 116.0505 284° West 163 188 3,500 -900 Descending FlightAware ADS-B (YPPH / PER)
03:36AM -32.0599 116.0291 285° West 163 188 3,200 -840 Descending FlightAware ADS-B (YPPH / PER)
03:37AM -32.0564 116.0125 284° West 162 186 2,900 -900 Descending FlightAware ADS-B (YPPH / PER)
03:37AM -32.0525 115.9948 285° West 166 191 2,600 -900 Descending FlightAware ADS-B (YPPH / PER)
03:37AM -32.0486 115.9766 284° West 164 189 2,300 -840 Descending FlightAware ADS-B (YPPH / PER)
03:38AM -32.0454 115.9623 285° West 149 171 2,100 -840 Descending FlightAware ADS-B (YPPH / PER)
03:38AM -32.0337 115.9407 303° West 145 167 1,600 -840 Descending FlightAware ADS-B (YPPH / PER)
03:38AM -32.0274 115.9397 352° North 149 171 1,500 -480 Descending FlightAware ADS-B (YPPH / PER)
03:38AM -32.0249 115.9401 North 153 176 1,500 -900 Level FlightAware ADS-B (YPPH / PER)
03:39AM -32.0077 115.9454 15° North 148 170 1,100 -900 Descending FlightAware ADS-B (YPPH / PER)
03:39AM -31.9880 115.9510 13° North 159 183 700 -840 Descending FlightAware
03:40AM -31.9718 115.9559 14° North 151 174 400 -960 Descending FlightAware ADS-B (YPPH / PER)
03:40AM -31.9567 115.9602 14° North 148 170 100 -900 Descending FlightAware ADS-B (YPPH / PER)